Time;durP1;ratioP1;P1;durP2;ratioP2;P2;SDS_P1;SDS_P2;PMS_P1;PMS_P2;Temp;Humidity;BMP_temperature;BMP_pressure;BME280_temperature;BME280_humidity;BME280_pressure;Samples;Min_cycle;Max_cycle;Signal;HPM_P1;HPM_P2
2023/09/06 00:00:30;;;;;;;;;;;;;;;22.41;58.92;101754.97;5030008;28;3973;-65
2023/09/06 00:02:57;;;;;;;;;;;;;;;22.39;58.99;101758.47;5039746;28;4071;-64
2023/09/06 00:05:24;;;;;;;;;;;;;;;22.41;59.21;101747.03;5033326;28;4164;-64
2023/09/06 00:07:50;;;;;;;;;;;;;;;22.41;58.77;101743.41;5030008;28;4283;-64
2023/09/06 00:10:17;;;;;;;;;;;;;;;22.40;58.91;101748.41;5030381;28;4502;-64
2023/09/06 00:12:45;;;;;;;;;;;;;;;22.40;58.68;101745.53;5028589;28;4107;-64
2023/09/06 00:15:11;;;;;;;;;;;;;;;22.40;59.01;101742.66;5027049;28;4206;-64
2023/09/06 00:17:38;;;;;;;;;;;;;;;22.40;59.00;101742.66;5026691;28;5291;-64
2023/09/06 00:20:24;;;;;;;;;;;;;;;22.40;58.83;101753.44;5029444;28;4013;-65
2023/09/06 00:22:54;;;;;;;;;;;;;;;22.38;58.92;101739.69;5027527;28;4187;-65
2023/09/06 00:25:21;;;;;;;;;;;;;;;22.38;58.82;101739.69;5031624;28;3929;-65
2023/09/06 00:27:50;;;;;;;;;;;;;;;22.38;58.84;101743.31;5029646;28;4240;-65
2023/09/06 00:30:18;;;;;;;;;;;;;;;22.38;58.76;101743.31;5031369;28;4019;-65
2023/09/06 00:32:45;;;;;;;;;;;;;;;22.37;58.73;101750.47;5046123;28;4145;-65
2023/09/06 00:35:12;;;;;;;;;;;;;;;22.38;58.93;101736.78;5030892;28;4127;-64
2023/09/06 00:37:40;;;;;;;;;;;;;;;22.37;58.68;101732.41;5026119;28;4234;-65
2023/09/06 00:40:17;;;;;;;;;;;;;;;22.37;58.59;101738.16;5029076;28;4087;-65
2023/09/06 00:42:53;;;;;;;;;;;;;;;22.36;58.65;101731.66;5029436;28;4030;-65
2023/09/06 00:45:26;;;;;;;;;;;;;;;22.36;58.56;101739.56;5026299;28;4037;-66
2023/09/06 00:47:52;;;;;;;;;;;;;;;22.37;58.44;101749.72;5025621;28;4014;-65
2023/09/06 00:50:19;;;;;;;;;;;;;;;22.35;58.66;101758.25;5028960;28;4163;-65
2023/09/06 00:52:46;;;;;;;;;;;;;;;22.35;58.43;101740.94;5029132;28;4087;-65
2023/09/06 00:55:13;;;;;;;;;;;;;;;22.34;58.47;101740.22;5025378;28;4156;-65
2023/09/06 00:57:40;;;;;;;;;;;;;;;22.35;58.48;101735.19;5028948;28;4117;-65
2023/09/06 01:00:17;;;;;;;;;;;;;;;22.35;58.41;101740.94;5042265;28;4221;-65
2023/09/06 01:02:44;;;;;;;;;;;;;;;22.34;58.40;101745.97;5041844;28;4147;-65
2023/09/06 01:05:11;;;;;;;;;;;;;;;22.33;58.58;101737.94;5029138;28;5594;-65
2023/09/06 01:07:37;;;;;;;;;;;;;;;22.32;58.36;101748.75;5026382;28;4082;-65
2023/09/06 01:10:04;;;;;;;;;;;;;;;22.32;58.75;101742.25;5010076;28;4692;-65
2023/09/06 01:12:30;;;;;;;;;;;;;;;22.34;58.60;101745.22;5029583;28;4109;-64
2023/09/06 01:14:57;;;;;;;;;;;;;;;22.32;58.39;101742.25;5028085;28;4048;-65
2023/09/06 01:17:24;;;;;;;;;;;;;;;22.32;58.38;101753.78;5023786;28;4146;-65
2023/09/06 01:19:54;;;;;;;;;;;;;;;22.31;58.43;101746.50;5030667;28;4073;-64
2023/09/06 01:22:22;;;;;;;;;;;;;;;22.31;58.41;101752.28;5031237;28;4131;-63
2023/09/06 01:24:49;;;;;;;;;;;;;;;22.30;58.17;101756.56;5042760;28;4148;-64
2023/09/06 01:27:15;;;;;;;;;;;;;;;22.31;58.39;101753.03;5023183;28;4021;-64
2023/09/06 01:29:42;;;;;;;;;;;;;;;22.29;58.46;101749.31;5033359;28;4124;-66
2023/09/06 01:32:08;;;;;;;;;;;;;;;22.29;58.38;101749.31;5037382;28;4034;-64
2023/09/06 01:34:34;;;;;;;;;;;;;;;22.30;58.23;101739.25;5028554;28;4097;-65
2023/09/06 01:37:01;;;;;;;;;;;;;;;22.29;58.42;101746.41;5030978;28;4063;-65
2023/09/06 01:39:28;;;;;;;;;;;;;;;22.29;58.24;101750.06;5029016;28;4246;-65
2023/09/06 01:41:58;;;;;;;;;;;;;;;22.28;58.20;101742.03;5026692;28;4343;-64
2023/09/06 01:44:26;;;;;;;;;;;;;;;22.28;58.09;101747.78;5026257;28;4177;-64
2023/09/06 01:46:53;;;;;;;;;;;;;;;22.27;57.96;101744.16;5027192;28;4141;-64
2023/09/06 01:49:20;;;;;;;;;;;;;;;22.26;57.94;101742.66;5024034;28;4108;-64
2023/09/06 01:51:47;;;;;;;;;;;;;;;22.27;57.98;101746.31;5027005;28;4105;-64
2023/09/06 01:54:14;;;;;;;;;;;;;;;22.25;58.00;101746.94;5030395;28;5417;-64
2023/09/06 01:56:41;;;;;;;;;;;;;;;22.26;58.06;101741.91;5024527;28;4202;-64
2023/09/06 01:59:08;;;;;;;;;;;;;;;22.25;58.01;101743.31;5024921;28;4083;-64
2023/09/06 02:01:34;;;;;;;;;;;;;;;22.25;57.96;101743.31;5017587;28;4520;-64
2023/09/06 02:04:05;;;;;;;;;;;;;;;22.24;57.87;101736.03;5030816;28;3998;-63
2023/09/06 02:06:32;;;;;;;;;;;;;;;22.23;57.83;101735.28;5026869;28;4294;-64
2023/09/06 02:08:58;;;;;;;;;;;;;;;22.24;57.94;101738.91;5026851;28;4173;-64
2023/09/06 02:11:25;;;;;;;;;;;;;;;22.23;57.86;101740.31;5028161;28;4121;-64
2023/09/06 02:13:52;;;;;;;;;;;;;;;22.23;57.83;101734.56;5026963;28;4143;-64
2023/09/06 02:16:18;;;;;;;;;;;;;;;22.22;57.77;101728.03;5025668;28;4205;-64
2023/09/06 02:18:46;;;;;;;;;;;;;;;22.23;57.69;101723.00;5039529;28;4129;-63
2023/09/06 02:21:12;;;;;;;;;;;;;;;22.22;57.88;101725.16;5029747;28;4133;-64
2023/09/06 02:23:38;;;;;;;;;;;;;;;22.21;57.70;101720.75;5026289;28;4888;-64
2023/09/06 02:26:05;;;;;;;;;;;;;;;22.21;57.67;101731.53;5041352;28;4132;-63
2023/09/06 02:28:31;;;;;;;;;;;;;;;22.21;57.65;101725.75;5029491;28;3987;-64
2023/09/06 02:30:58;;;;;;;;;;;;;;;22.20;57.54;101735.81;5030863;28;4228;-64
2023/09/06 02:33:25;;;;;;;;;;;;;;;22.19;57.65;101726.38;5032724;28;4301;-64
2023/09/06 02:35:51;;;;;;;;;;;;;;;22.18;57.57;101740.06;5023942;28;4110;-64
2023/09/06 02:38:18;;;;;;;;;;;;;;;22.19;57.71;101732.16;5026260;28;4116;-64
2023/09/06 02:40:44;;;;;;;;;;;;;;;22.18;57.89;101734.31;5037695;28;4218;-64
2023/09/06 02:43:12;;;;;;;;;;;;;;;22.19;57.50;101732.16;5019492;28;4296;-64
2023/09/06 02:45:39;;;;;;;;;;;;;;;22.16;57.94;101725.53;5026682;28;4185;-64
2023/09/06 02:48:06;;;;;;;;;;;;;;;22.16;57.85;101731.31;5026208;28;4084;-64
2023/09/06 02:50:34;;;;;;;;;;;;;;;22.15;57.51;101726.94;5025114;28;4132;-64
2023/09/06 02:53:01;;;;;;;;;;;;;;;22.16;57.46;101730.56;5025632;28;4079;-64
2023/09/06 02:55:27;;;;;;;;;;;;;;;22.17;57.41;101732.06;5025717;28;4369;-64
2023/09/06 02:57:55;;;;;;;;;;;;;;;22.17;57.60;101729.16;5025231;28;3973;-64
2023/09/06 03:00:25;;;;;;;;;;;;;;;22.16;57.73;101737.06;5040069;28;4650;-63
2023/09/06 03:02:55;;;;;;;;;;;;;;;22.14;57.40;101744.88;5024135;28;4507;-64
2023/09/06 03:05:22;;;;;;;;;;;;;;;22.14;57.67;101745.63;5027754;28;4064;-64
2023/09/06 03:07:48;;;;;;;;;;;;;;;22.14;57.64;101750.66;5024081;28;4458;-64
2023/09/06 03:10:19;;;;;;;;;;;;;;;22.14;57.37;101757.16;5039431;28;4464;-64
2023/09/06 03:12:47;;;;;;;;;;;;;;;22.13;57.59;101752.78;5024287;28;4156;-63
2023/09/06 03:15:15;;;;;;;;;;;;;;;22.14;57.64;101748.50;5023455;28;4427;-64
2023/09/06 03:17:46;;;;;;;;;;;;;;;22.15;57.75;101758.66;5040259;28;4163;-64
2023/09/06 03:20:22;;;;;;;;;;;;;;;22.14;57.43;101757.16;5020979;28;4085;-63
2023/09/06 03:22:50;;;;;;;;;;;;;;;22.13;57.44;101761.44;5041230;28;4265;-64
2023/09/06 03:25:17;;;;;;;;;;;;;;;22.12;57.76;101759.94;5013456;28;4041;-72
2023/09/06 03:27:44;;;;;;;;;;;;;;;22.11;57.70;101763.47;5024774;28;4118;-62
2023/09/06 03:30:15;;;;;;;;;;;;;;;22.13;57.33;101772.25;5021763;28;3950;-75
2023/09/06 03:32:48;;;;;;;;;;;;;;;22.16;57.56;101765.94;5024880;28;4134;-72
2023/09/06 03:35:16;;;;;;;;;;;;;;;22.13;57.81;101772.25;5026251;28;4050;-72
2023/09/06 03:37:43;;;;;;;;;;;;;;;21.65;57.61;101768.94;5027327;28;4098;-73
2023/09/06 03:43:06;;;;;;;;;;;;;;;21.68;57.43;101770.53;5011385;28;4226;-72
2023/09/06 03:45:33;;;;;;;;;;;;;;;21.64;56.99;101770.31;5027347;28;4010;-72
2023/09/06 03:48:00;;;;;;;;;;;;;;;21.56;56.98;101775.63;5034648;28;4141;-72
2023/09/06 03:50:30;;;;;;;;;;;;;;;21.57;56.68;101780.00;5033243;28;5050;-72
2023/09/06 03:52:57;;;;;;;;;;;;;;;21.58;56.58;101778.63;5030796;28;5249;-73
2023/09/06 03:55:24;;;;;;;;;;;;;;;21.51;56.20;101773.91;5044452;28;4038;-72
2023/09/06 03:57:52;;;;;;;;;;;;;;;21.51;56.17;101773.91;5017957;28;4322;-72
2023/09/06 04:00:31;;;;;;;;;;;;;;;21.52;56.02;101772.53;5029404;28;4104;-72
2023/09/06 04:03:10;;;;;;;;;;;;;;;21.48;55.72;101775.16;5027057;28;4217;-73
2023/09/06 04:05:43;;;;;;;;;;;;;;;21.43;55.56;101776.34;5027127;28;4582;-73
2023/09/06 04:08:10;;;;;;;;;;;;;;;21.39;55.81;101779.69;5028458;28;4781;-73
2023/09/06 04:10:38;;;;;;;;;;;;;;;21.38;55.91;101780.34;5024877;28;4179;-74
2023/09/06 04:13:05;;;;;;;;;;;;;;;21.31;55.75;101782.88;5033406;28;4216;-74
2023/09/06 04:15:35;;;;;;;;;;;;;;;21.33;55.56;101790.88;5022281;28;4241;-68
2023/09/06 04:18:03;;;;;;;;;;;;;;;21.30;55.71;101787.16;5035860;28;4208;-74
2023/09/06 04:20:36;;;;;;;;;;;;;;;21.28;55.40;101787.03;5027939;28;4116;-75
2023/09/06 04:23:04;;;;;;;;;;;;;;;21.26;55.64;101795.56;5027071;28;6384;-74
2023/09/06 04:25:34;;;;;;;;;;;;;;;21.23;55.57;101793.91;5024331;28;4066;-73
2023/09/06 04:28:00;;;;;;;;;;;;;;;21.22;55.55;101795.31;5033634;28;4016;-74
2023/09/06 04:30:32;;;;;;;;;;;;;;;21.20;55.63;101803.09;5029673;28;4067;-75
2023/09/06 04:32:58;;;;;;;;;;;;;;;21.18;55.40;101795.06;5031128;28;5317;-75
2023/09/06 04:35:33;;;;;;;;;;;;;;;21.17;55.51;101805.09;5037514;28;4044;-74
2023/09/06 04:38:02;;;;;;;;;;;;;;;21.15;55.48;101810.00;5035310;28;4189;-74
2023/09/06 04:40:32;;;;;;;;;;;;;;;21.15;55.33;101807.88;5023764;28;4884;-74
2023/09/06 04:42:58;;;;;;;;;;;;;;;21.12;55.62;101809.13;5038023;28;5235;-75
2023/09/06 04:45:25;;;;;;;;;;;;;;;21.09;55.57;101808.25;5041819;28;3889;-74
2023/09/06 04:47:52;;;;;;;;;;;;;;;21.20;55.66;101812.47;5026805;28;4254;-68
2023/09/06 04:50:18;;;;;;;;;;;;;;;21.29;55.38;101817.31;5022421;28;4092;-72
2023/09/06 04:52:45;;;;;;;;;;;;;;;21.39;55.25;101816.41;5023804;28;4175;-72
2023/09/06 04:55:15;;;;;;;;;;;;;;;21.56;54.99;101816.00;5042336;28;4189;-75
2023/09/06 04:57:41;;;;;;;;;;;;;;;21.64;55.16;101822.19;5022594;28;5383;-75
2023/09/06 05:00:17;;;;;;;;;;;;;;;21.72;55.10;101822.66;5022054;28;4242;-67
2023/09/06 05:02:46;;;;;;;;;;;;;;;21.53;55.47;101817.25;5025943;28;4203;-68
2023/09/06 05:05:16;;;;;;;;;;;;;;;21.48;55.62;101821.28;5027528;28;4270;-68
2023/09/06 05:07:45;;;;;;;;;;;;;;;21.62;55.81;101818.44;5042296;28;4336;-68
2023/09/06 05:10:11;;;;;;;;;;;;;;;21.70;55.52;101827.56;5030528;28;4127;-68
2023/09/06 05:12:38;;;;;;;;;;;;;;;21.73;55.90;101818.38;5033740;28;4283;-68
2023/09/06 05:15:04;;;;;;;;;;;;;;;21.75;55.77;101815.63;5032240;28;4725;-68
2023/09/06 05:17:32;;;;;;;;;;;;;;;21.78;55.90;101827.25;5029042;28;4039;-68
2023/09/06 05:20:18;;;;;;;;;;;;;;;21.79;55.70;101823.75;5046980;28;6693;-68
2023/09/06 05:22:44;;;;;;;;;;;;;;;21.80;55.88;101828.13;5045068;28;4059;-68
2023/09/06 05:25:11;;;;;;;;;;;;;;;21.81;56.16;101823.88;5031588;28;4526;-68
2023/09/06 05:27:39;;;;;;;;;;;;;;;21.81;56.02;101823.13;5027875;28;4158;-67
2023/09/06 05:30:06;;;;;;;;;;;;;;;21.82;55.82;101822.47;5030055;28;4081;-68
2023/09/06 05:32:33;;;;;;;;;;;;;;;21.82;56.16;101819.59;5030338;28;4212;-63
2023/09/06 05:35:00;;;;;;;;;;;;;;;21.84;56.23;101810.31;5042657;28;4139;-68
2023/09/06 05:37:26;;;;;;;;;;;;;;;21.83;56.05;101814.56;5030589;28;4365;-67
2023/09/06 05:39:53;;;;;;;;;;;;;;;21.83;56.08;101818.22;5027332;28;4183;-68
2023/09/06 05:42:20;;;;;;;;;;;;;;;21.83;56.33;101815.34;5025396;28;4074;-68
2023/09/06 05:44:46;;;;;;;;;;;;;;;21.85;56.39;101829.09;5036050;28;4050;-67
2023/09/06 05:47:13;;;;;;;;;;;;;;;21.87;56.24;101826.34;5025252;28;4064;-68
2023/09/06 05:49:40;;;;;;;;;;;;;;;21.87;56.47;101826.34;5028421;28;4295;-67
2023/09/06 05:52:07;;;;;;;;;;;;;;;21.89;56.18;101835.09;5031923;28;4209;-68
2023/09/06 05:54:33;;;;;;;;;;;;;;;21.88;56.35;101833.63;5031407;28;4502;-67
2023/09/06 05:57:00;;;;;;;;;;;;;;;21.90;56.47;101833.72;5026126;28;4177;-68
2023/09/06 05:59:27;;;;;;;;;;;;;;;21.91;56.29;101843.88;5033474;28;3990;-68
2023/09/06 06:01:54;;;;;;;;;;;;;;;21.91;56.57;101843.88;5028655;28;4189;-68
2023/09/06 06:04:20;;;;;;;;;;;;;;;21.92;56.43;101842.47;5027042;28;4107;-68
2023/09/06 06:06:47;;;;;;;;;;;;;;;21.92;56.57;101851.13;5032098;28;4097;-68
2023/09/06 06:09:15;;;;;;;;;;;;;;;21.92;56.49;101845.34;5044739;28;3921;-67
2023/09/06 06:11:41;;;;;;;;;;;;;;;21.92;56.46;101846.13;5027699;28;4122;-67
2023/09/06 06:14:08;;;;;;;;;;;;;;;21.93;56.66;101853.38;5030676;28;3969;-68
2023/09/06 06:16:37;;;;;;;;;;;;;;;21.92;56.49;101840.34;5029118;28;4121;-68
2023/09/06 06:19:03;;;;;;;;;;;;;;;21.94;56.55;101842.59;5029968;28;4087;-68
2023/09/06 06:21:31;;;;;;;;;;;;;;;21.94;56.91;101854.13;5031846;28;4138;-68
2023/09/06 06:23:58;;;;;;;;;;;;;;;21.95;56.63;101849.88;5042895;28;3971;-68
2023/09/06 06:26:24;;;;;;;;;;;;;;;21.95;56.99;101852.75;5030303;28;4062;-68
2023/09/06 06:28:51;;;;;;;;;;;;;;;21.95;56.84;101844.84;5027101;28;4266;-69
2023/09/06 06:31:17;;;;;;;;;;;;;;;21.96;56.70;101851.34;5032328;28;4140;-68
2023/09/06 06:33:44;;;;;;;;;;;;;;;21.95;56.75;101844.84;5031815;28;4122;-69
2023/09/06 06:36:10;;;;;;;;;;;;;;;21.96;56.74;101851.34;5027764;28;3996;-68
2023/09/06 06:38:37;;;;;;;;;;;;;;;21.97;56.83;101847.09;5034736;28;4141;-68
2023/09/06 06:41:03;;;;;;;;;;;;;;;21.97;57.04;101855.75;5031004;28;4172;-68
2023/09/06 06:43:33;;;;;;;;;;;;;;;21.98;56.90;101856.50;5029996;28;4024;-68
2023/09/06 06:46:04;;;;;;;;;;;;;;;21.99;57.25;101860.88;5046193;28;6719;-68
2023/09/06 06:48:31;;;;;;;;;;;;;;;21.99;56.77;101850.09;5030089;28;4056;-68
2023/09/06 06:50:57;;;;;;;;;;;;;;;21.99;56.95;101850.09;5029269;28;4189;-68
2023/09/06 06:53:23;;;;;;;;;;;;;;;21.99;57.13;101850.09;5032228;28;4054;-68
2023/09/06 06:55:51;;;;;;;;;;;;;;;21.99;57.00;101850.09;5032666;28;3921;-68
2023/09/06 06:58:17;;;;;;;;;;;;;;;21.99;56.94;101850.09;5030910;28;3936;-68
2023/09/06 07:00:44;;;;;;;;;;;;;;;22.00;57.36;101857.34;5032189;28;4968;-68
2023/09/06 07:03:11;;;;;;;;;;;;;;;22.00;56.97;101856.59;5033632;28;4215;-68
2023/09/06 07:05:38;;;;;;;;;;;;;;;21.99;57.20;101855.88;5029679;28;4213;-66
2023/09/06 07:08:05;;;;;;;;;;;;;;;22.01;57.28;101855.94;5025716;28;4052;-67
2023/09/06 07:10:31;;;;;;;;;;;;;;;22.02;57.37;101857.47;5031143;28;3883;-67
2023/09/06 07:12:58;;;;;;;;;;;;;;;22.02;57.09;101856.72;5029617;28;4141;-70
2023/09/06 07:15:24;;;;;;;;;;;;;;;22.02;57.20;101860.34;5044314;28;4127;-68
2023/09/06 07:17:51;;;;;;;;;;;;;;;22.03;57.11;101861.09;5031451;28;4020;-68
2023/09/06 07:20:18;;;;;;;;;;;;;;;22.03;57.05;101867.59;5029997;28;4163;-68
2023/09/06 07:22:44;;;;;;;;;;;;;;;22.03;57.11;101867.59;5029810;28;4164;-67
2023/09/06 07:25:13;;;;;;;;;;;;;;;22.03;57.10;101867.59;5035663;28;4034;-68
2023/09/06 07:27:39;;;;;;;;;;;;;;;22.05;57.28;101869.88;5033892;28;4259;-68
2023/09/06 07:30:06;;;;;;;;;;;;;;;22.04;57.14;101871.25;5035505;28;4137;-68
2023/09/06 07:32:33;;;;;;;;;;;;;;;22.03;57.42;101867.59;5032477;28;4128;-68
2023/09/06 07:34:59;;;;;;;;;;;;;;;22.03;57.23;101873.38;5034332;28;4453;-68
2023/09/06 07:37:26;;;;;;;;;;;;;;;22.03;57.30;101861.84;5033417;28;4153;-68
2023/09/06 07:39:53;;;;;;;;;;;;;;;22.03;57.27;101872.63;5036109;28;4190;-68
2023/09/06 07:42:19;;;;;;;;;;;;;;;22.03;57.34;101867.59;5030849;28;4203;-68
2023/09/06 07:44:45;;;;;;;;;;;;;;;22.04;57.32;101866.22;5033975;28;4255;-67
2023/09/06 07:47:12;;;;;;;;;;;;;;;22.04;57.55;101872.00;5033373;28;4144;-68
2023/09/06 07:49:38;;;;;;;;;;;;;;;22.03;57.36;101879.13;5031582;28;4103;-68
2023/09/06 07:52:05;;;;;;;;;;;;;;;22.05;57.65;101876.38;5032167;28;4557;-68
2023/09/06 07:54:31;;;;;;;;;;;;;;;22.05;57.47;101873.50;5035013;28;4105;-68
2023/09/06 07:56:58;;;;;;;;;;;;;;;22.06;57.36;101880.78;5033153;28;4227;-68
2023/09/06 07:59:25;;;;;;;;;;;;;;;22.06;57.28;101880.78;5031088;28;4150;-68
2023/09/06 08:01:53;;;;;;;;;;;;;;;22.06;57.23;101883.66;5034837;28;4103;-67
2023/09/06 08:04:19;;;;;;;;;;;;;;;22.07;57.25;101890.91;5031411;28;4132;-68
2023/09/06 08:06:46;;;;;;;;;;;;;;;22.07;57.20;101890.91;5032504;28;4293;-68
2023/09/06 08:09:13;;;;;;;;;;;;;;;22.07;57.63;101882.25;5032064;28;4054;-68
2023/09/06 08:11:39;;;;;;;;;;;;;;;22.07;57.38;101888.03;5034784;28;4088;-67
2023/09/06 08:14:06;;;;;;;;;;;;;;;22.07;57.57;101885.16;5030514;28;4207;-67
2023/09/06 08:16:32;;;;;;;;;;;;;;;22.09;57.25;101887.41;5032652;28;4117;-68
2023/09/06 08:18:59;;;;;;;;;;;;;;;22.08;57.17;101892.44;5033336;28;3957;-68
2023/09/06 08:21:25;;;;;;;;;;;;;;;22.08;57.53;101883.78;5031419;28;4128;-68
2023/09/06 08:23:52;;;;;;;;;;;;;;;22.08;57.57;101880.88;5033095;28;5218;-68
2023/09/06 08:26:19;;;;;;;;;;;;;;;22.10;57.19;101889.63;5034770;28;4030;-67
2023/09/06 08:28:45;;;;;;;;;;;;;;;22.10;57.35;101895.41;5030940;28;4110;-68
2023/09/06 08:31:12;;;;;;;;;;;;;;;22.10;57.39;101892.50;5033548;28;3954;-68
2023/09/06 08:33:38;;;;;;;;;;;;;;;22.11;57.25;101896.91;5033268;28;3930;-67
2023/09/06 08:36:05;;;;;;;;;;;;;;;22.11;57.50;101890.41;5036139;28;4121;-68
2023/09/06 08:38:32;;;;;;;;;;;;;;;22.11;57.38;101891.16;5029250;28;3988;-68
2023/09/06 08:40:59;;;;;;;;;;;;;;;22.12;57.55;101892.63;5030089;28;4095;-68
2023/09/06 08:43:27;;;;;;;;;;;;;;;22.12;57.50;101886.84;5035938;28;4172;-68
2023/09/06 08:45:53;;;;;;;;;;;;;;;22.13;57.38;101888.38;5033223;28;4084;-68
2023/09/06 08:48:23;;;;;;;;;;;;;;;22.14;57.28;101894.88;5039865;28;4108;-68
2023/09/06 08:50:49;;;;;;;;;;;;;;;22.14;57.46;101895.63;5046262;28;4112;-68
2023/09/06 08:53:18;;;;;;;;;;;;;;;22.14;57.50;101886.22;5031213;28;4130;-67
2023/09/06 08:55:45;;;;;;;;;;;;;;;22.15;57.38;101902.13;5028677;28;4080;-67
2023/09/06 08:58:11;;;;;;;;;;;;;;;22.16;57.41;101903.66;5032166;28;4138;-68
2023/09/06 09:00:38;;;;;;;;;;;;;;;22.15;57.52;101885.59;5029692;28;4173;-67
2023/09/06 09:03:05;;;;;;;;;;;;;;;22.16;57.39;101897.88;5031990;28;4138;-68
2023/09/06 09:05:31;;;;;;;;;;;;;;;22.16;57.57;101895.75;5032644;28;3887;-68
2023/09/06 09:07:58;;;;;;;;;;;;;;;22.16;57.85;101887.09;5036042;28;3997;-68
2023/09/06 09:10:28;;;;;;;;;;;;;;;22.18;57.49;101889.34;5028705;28;4171;-68
2023/09/06 09:12:55;;;;;;;;;;;;;;;22.18;57.71;101895.84;5032712;28;4473;-68
2023/09/06 09:15:22;;;;;;;;;;;;;;;22.20;57.49;101897.38;5031202;28;4285;-67
2023/09/06 09:17:50;;;;;;;;;;;;;;;22.20;57.87;101891.59;5032167;28;3980;-67
2023/09/06 09:20:26;;;;;;;;;;;;;;;22.20;57.67;101897.38;5030055;28;4163;-69
2023/09/06 09:22:57;;;;;;;;;;;;;;;22.20;58.01;101897.38;5037297;28;3990;-68
2023/09/06 09:25:23;;;;;;;;;;;;;;;22.21;57.82;101898.84;5033858;28;4232;-68
2023/09/06 09:27:56;;;;;;;;;;;;;;;22.22;57.83;101906.16;5031688;28;4147;-68
2023/09/06 09:30:23;;;;;;;;;;;;;;;22.23;58.04;101893.22;5030078;28;4585;-66
2023/09/06 09:33:01;;;;;;;;;;;;;;;22.23;58.04;101896.88;5030474;28;4310;-68
2023/09/06 09:35:28;;;;;;;;;;;;;;;22.22;58.18;101904.03;5031171;28;4304;-68
2023/09/06 09:37:56;;;;;;;;;;;;;;;22.23;58.06;101904.78;5033311;28;4102;-67
2023/09/06 09:40:32;;;;;;;;;;;;;;;22.24;58.34;101907.03;5033356;28;4180;-68
2023/09/06 09:43:17;;;;;;;;;;;;;;;22.24;58.21;101904.16;5029965;28;4005;-67
2023/09/06 09:45:45;;;;;;;;;;;;;;;22.26;58.20;101903.50;5033010;28;4071;-67
2023/09/06 09:48:12;;;;;;;;;;;;;;;22.26;58.60;101894.84;5032471;28;3980;-68
2023/09/06 09:50:41;;;;;;;;;;;;;;;22.27;58.38;101896.34;5029947;28;4205;-66
2023/09/06 09:53:08;;;;;;;;;;;;;;;22.28;58.38;101894.94;5047411;28;4126;-67
2023/09/06 09:55:47;;;;;;;;;;;;;;;22.28;58.45;101903.59;5029035;28;4157;-68
2023/09/06 09:58:13;;;;;;;;;;;;;;;22.28;58.65;101892.06;5028285;28;3976;-68
2023/09/06 10:00:41;;;;;;;;;;;;;;;22.29;58.57;101896.47;5043062;28;4888;-67
2023/09/06 10:03:08;;;;;;;;;;;;;;;22.30;58.76;101892.19;5038369;28;3982;-68
2023/09/06 10:05:35;;;;;;;;;;;;;;;22.30;58.92;101897.94;5042498;28;4219;-67
2023/09/06 10:08:01;;;;;;;;;;;;;;;22.31;58.60;101902.31;5031916;28;4109;-67
2023/09/06 10:10:28;;;;;;;;;;;;;;;22.32;58.69;101898.06;5030944;28;4197;-68
2023/09/06 10:12:55;;;;;;;;;;;;;;;22.32;59.01;101898.06;5033054;28;4282;-67
2023/09/06 10:15:24;;;;;;;;;;;;;;;22.31;58.77;101896.56;5041358;28;4202;-67
2023/09/06 10:17:51;;;;;;;;;;;;;;;22.32;58.79;101901.69;5030854;28;4123;-68
2023/09/06 10:20:23;;;;;;;;;;;;;;;22.33;59.01;101896.66;5026981;28;4068;-67
2023/09/06 10:22:52;;;;;;;;;;;;;;;22.34;58.90;101901.06;5042315;28;4197;-68
2023/09/06 10:25:18;;;;;;;;;;;;;;;22.35;59.14;101902.53;5045523;28;4276;-67
2023/09/06 10:27:54;;;;;;;;;;;;;;;22.35;58.94;101903.28;5031826;28;4139;-67
2023/09/06 10:30:44;;;;;;;;;;;;;;;22.36;58.97;101904.06;5030559;28;4164;-67
2023/09/06 10:33:42;;;;;;;;;;;;;;;22.37;58.90;101902.66;5031454;28;4080;-67
2023/09/06 10:36:11;;;;;;;;;;;;;;;22.38;58.93;101904.19;5029734;28;4059;-67
2023/09/06 10:38:50;;;;;;;;;;;;;;;22.38;58.99;101901.28;5032849;28;4134;-67
2023/09/06 10:41:18;;;;;;;;;;;;;;;22.38;59.12;101895.53;5034554;28;4174;-67
2023/09/06 10:44:01;;;;;;;;;;;;;;;22.38;58.97;101893.38;5030325;28;4020;-67
2023/09/06 10:46:31;;;;;;;;;;;;;;;22.40;59.28;101886.94;5031766;28;4346;-67
2023/09/06 10:49:19;;;;;;;;;;;;;;;22.40;58.94;101898.50;5028884;28;4069;-67
2023/09/06 10:52:01;;;;;;;;;;;;;;;22.41;59.01;101890.59;5030574;28;4386;-67
2023/09/06 10:54:38;;;;;;;;;;;;;;;22.41;59.06;101879.81;5029713;28;4503;-67
2023/09/06 10:57:05;;;;;;;;;;;;;;;22.41;59.40;101888.47;5029618;28;4106;-67
2023/09/06 10:59:52;;;;;;;;;;;;;;;22.42;59.40;101878.41;5028874;28;4044;-67
2023/09/06 11:02:18;;;;;;;;;;;;;;;22.42;59.07;101877.66;5028557;28;4303;-67
2023/09/06 11:04:48;;;;;;;;;;;;;;;22.42;59.13;101872.63;5034451;28;4112;-68
2023/09/06 11:07:14;;;;;;;;;;;;;;;22.44;59.32;101875.63;5033283;28;4196;-67
2023/09/06 11:09:43;;;;;;;;;;;;;;;22.45;59.12;101874.25;5033352;28;4299;-66
2023/09/06 11:12:10;;;;;;;;;;;;;;;22.44;59.10;101872.75;5050564;28;4094;-67
2023/09/06 11:14:36;;;;;;;;;;;;;;;22.45;59.18;101874.25;5034631;28;4113;-67
2023/09/06 11:17:02;;;;;;;;;;;;;;;22.46;59.42;101866.34;5033888;28;4135;-67
2023/09/06 11:19:29;;;;;;;;;;;;;;;22.46;59.26;101867.09;5034263;28;4077;-67
2023/09/06 11:22:06;;;;;;;;;;;;;;;22.46;59.15;101872.84;5030941;28;4142;-67
2023/09/06 11:24:33;;;;;;;;;;;;;;;22.47;59.44;101867.81;5031565;28;3947;-68
2023/09/06 11:27:03;;;;;;;;;;;;;;;22.48;59.11;101875.84;5032621;28;4190;-67
2023/09/06 11:29:30;;;;;;;;;;;;;;;22.48;59.16;101864.31;5033560;28;4157;-67
2023/09/06 11:32:11;;;;;;;;;;;;;;;22.48;59.31;101866.44;5032440;28;4372;-67
2023/09/06 11:34:41;;;;;;;;;;;;;;;22.48;59.28;101861.41;5032548;28;4105;-67
2023/09/06 11:37:10;;;;;;;;;;;;;;;22.49;59.50;101862.91;5030539;28;4101;-67
2023/09/06 11:39:40;;;;;;;;;;;;;;;22.50;59.30;101855.75;5031673;28;4113;-67
2023/09/06 11:42:11;;;;;;;;;;;;;;;22.49;59.57;101848.47;5035736;28;4151;-67
2023/09/06 11:44:43;;;;;;;;;;;;;;;22.49;59.35;101854.25;5032233;28;5076;-67
2023/09/06 11:47:09;;;;;;;;;;;;;;;22.53;59.33;101853.72;5031659;28;4181;-67
2023/09/06 11:49:39;;;;;;;;;;;;;;;22.53;59.49;101848.69;5046287;28;4032;-67
2023/09/06 11:52:06;;;;;;;;;;;;;;;22.53;59.27;101850.84;5031574;28;4066;-67
2023/09/06 11:54:37;;;;;;;;;;;;;;;22.55;59.30;101850.94;5033839;28;3972;-67
2023/09/06 11:57:04;;;;;;;;;;;;;;;22.54;59.47;101855.97;5044631;28;3926;-67
2023/09/06 11:59:32;;;;;;;;;;;;;;;22.55;59.42;101857.47;5036724;28;4111;-67
2023/09/06 12:02:01;;;;;;;;;;;;;;;22.56;59.29;101853.19;5033299;28;5070;-67
2023/09/06 12:04:29;;;;;;;;;;;;;;;22.57;59.44;101853.94;5031501;28;3920;-67
2023/09/06 12:06:57;;;;;;;;;;;;;;;22.57;59.16;101848.91;5031628;28;4149;-67
2023/09/06 12:09:24;;;;;;;;;;;;;;;22.57;59.51;101857.56;5036842;28;4173;-67
2023/09/06 12:11:51;;;;;;;;;;;;;;;22.55;59.65;101845.91;5034049;28;4157;-67
2023/09/06 12:14:17;;;;;;;;;;;;;;;22.57;59.34;101851.06;5049117;28;3882;-67
2023/09/06 12:16:44;;;;;;;;;;;;;;;22.57;59.65;101848.91;5033551;28;4118;-66
2023/09/06 12:19:15;;;;;;;;;;;;;;;22.58;59.48;101856.19;5036570;28;3991;-67
2023/09/06 12:21:42;;;;;;;;;;;;;;;22.61;59.27;101850.50;5033015;28;4138;-67
2023/09/06 12:24:08;;;;;;;;;;;;;;;22.58;59.64;101849.66;5033124;28;4093;-67
2023/09/06 12:26:35;;;;;;;;;;;;;;;22.62;59.53;101849.13;5031948;28;4075;-66
2023/09/06 12:29:01;;;;;;;;;;;;;;;22.63;59.31;101850.63;5031611;28;4206;-66
2023/09/06 12:31:30;;;;;;;;;;;;;;;22.59;59.71;101851.91;5032986;28;4444;-68
2023/09/06 12:33:56;;;;;;;;;;;;;;;22.63;59.67;101844.84;5034245;28;4221;-67
2023/09/06 12:36:23;;;;;;;;;;;;;;;22.63;59.60;101845.63;5034780;28;4120;-67
2023/09/06 12:38:51;;;;;;;;;;;;;;;22.64;59.41;101841.31;5031371;28;4197;-67
2023/09/06 12:41:17;;;;;;;;;;;;;;;22.64;59.30;101844.22;5031701;28;4142;-67
2023/09/06 12:43:44;;;;;;;;;;;;;;;22.65;59.49;101847.84;5030674;28;4171;-67
2023/09/06 12:46:13;;;;;;;;;;;;;;;22.68;59.58;101846.59;5031544;28;4098;-67
2023/09/06 12:48:42;;;;;;;;;;;;;;;22.66;59.33;101846.47;5028430;28;4139;-66
2023/09/06 12:51:09;;;;;;;;;;;;;;;22.67;59.63;101836.41;5032614;28;4005;-67
2023/09/06 12:53:36;;;;;;;;;;;;;;;22.67;59.43;101834.25;5031275;28;4113;-67
2023/09/06 12:56:03;;;;;;;;;;;;;;;22.70;59.57;101833.00;5032673;28;4258;-67